createdAt,value
2019-03-26T00:02:21.567Z,99.90
2019-03-26T00:04:50.011Z,99.90
2019-03-26T00:07:18.631Z,99.90
2019-03-26T00:09:47.068Z,99.90
2019-03-26T00:12:15.518Z,99.90
2019-03-26T00:14:44.254Z,99.90
2019-03-26T00:17:12.689Z,99.90
2019-03-26T00:19:41.398Z,99.90
2019-03-26T00:22:09.861Z,99.90
2019-03-26T00:24:38.336Z,99.90
2019-03-26T00:27:07.933Z,99.90
2019-03-26T00:29:36.866Z,99.90
2019-03-26T00:32:05.374Z,99.90
2019-03-26T00:34:33.828Z,99.90
2019-03-26T00:37:02.290Z,99.90
2019-03-26T00:39:30.741Z,99.90
2019-03-26T00:41:59.184Z,99.90
2019-03-26T00:44:27.725Z,99.90
2019-03-26T00:46:56.175Z,99.90
2019-03-26T00:49:24.677Z,99.90
2019-03-26T00:51:53.153Z,99.90
2019-03-26T00:54:21.599Z,99.90
2019-03-26T00:56:50.105Z,99.90
2019-03-26T00:59:18.573Z,99.90
2019-03-26T01:01:47.078Z,99.90
2019-03-26T01:04:15.517Z,99.90
2019-03-26T01:06:44.113Z,99.90
2019-03-26T01:09:12.552Z,99.90
2019-03-26T01:11:41.008Z,99.90
2019-03-26T01:14:09.466Z,99.90
2019-03-26T01:16:37.902Z,99.90
2019-03-26T01:19:06.365Z,99.90
2019-03-26T01:21:34.804Z,99.90
2019-03-26T01:24:03.239Z,99.90
2019-03-26T01:26:31.693Z,99.90
2019-03-26T01:29:00.134Z,99.90
2019-03-26T01:31:29.585Z,99.90
2019-03-26T01:33:58.021Z,99.90
2019-03-26T01:36:26.460Z,99.90
2019-03-26T01:38:54.929Z,99.90
2019-03-26T01:41:23.435Z,99.90
2019-03-26T01:43:52.129Z,99.90
2019-03-26T01:46:20.566Z,99.90
2019-03-26T01:48:49.001Z,99.90
2019-03-26T01:51:17.473Z,99.90
2019-03-26T01:53:45.932Z,99.90
2019-03-26T01:56:14.398Z,99.90
2019-03-26T01:58:42.916Z,99.90
2019-03-26T02:01:11.453Z,99.90
2019-03-26T02:03:39.988Z,99.90
2019-03-26T02:06:08.425Z,99.90
2019-03-26T02:08:37.031Z,99.90
2019-03-26T02:11:05.476Z,99.90
2019-03-26T02:13:33.923Z,99.90
2019-03-26T02:16:02.417Z,99.90
2019-03-26T02:18:30.866Z,99.90
2019-03-26T02:20:59.651Z,99.90
2019-03-26T02:23:28.226Z,99.90
2019-03-26T02:25:56.678Z,99.90
2019-03-26T02:28:25.123Z,99.90
2019-03-26T02:30:53.601Z,99.90
2019-03-26T02:33:22.113Z,99.90
2019-03-26T02:35:50.568Z,99.90
2019-03-26T02:38:19.702Z,99.90
2019-03-26T02:40:48.249Z,99.90
2019-03-26T02:43:16.772Z,99.90
2019-03-26T02:45:45.598Z,99.90
2019-03-26T02:48:14.047Z,99.90
2019-03-26T02:50:42.558Z,99.90
2019-03-26T02:53:11.119Z,99.90
2019-03-26T02:55:39.568Z,99.90
2019-03-26T02:58:08.014Z,99.90
2019-03-26T03:00:36.671Z,99.90
2019-03-26T03:03:05.183Z,99.90
2019-03-26T03:05:35.640Z,99.90
2019-03-26T03:08:03.840Z,99.90
2019-03-26T03:10:32.282Z,99.90
2019-03-26T03:13:00.730Z,99.90
2019-03-26T03:15:29.362Z,99.90
2019-03-26T03:17:57.808Z,99.90
2019-03-26T03:20:26.283Z,99.90
2019-03-26T03:22:54.799Z,99.90
2019-03-26T03:25:23.239Z,99.90
2019-03-26T03:27:51.703Z,99.90
2019-03-26T03:30:21.111Z,99.90
2019-03-26T03:32:49.570Z,99.90
2019-03-26T03:35:18.103Z,99.90
2019-03-26T03:37:46.715Z,99.90
2019-03-26T03:40:15.309Z,99.90
2019-03-26T03:42:43.897Z,99.90
2019-03-26T03:45:13.188Z,99.90
2019-03-26T03:47:42.348Z,99.90
2019-03-26T03:50:11.633Z,99.90
2019-03-26T03:52:40.914Z,99.90
2019-03-26T03:55:09.666Z,99.90
2019-03-26T03:57:39.207Z,99.90
2019-03-26T04:00:10.768Z,99.90
2019-03-26T04:02:39.280Z,99.90
2019-03-26T04:05:07.964Z,99.90
2019-03-26T04:07:36.451Z,99.90
2019-03-26T04:10:06.435Z,99.90
2019-03-26T04:12:34.884Z,99.90
2019-03-26T04:15:04.328Z,99.90
2019-03-26T04:17:32.777Z,99.90
2019-03-26T04:20:01.228Z,99.90
2019-03-26T04:22:29.713Z,99.90
2019-03-26T04:24:58.231Z,99.90
2019-03-26T04:27:26.672Z,99.90
2019-03-26T04:29:55.150Z,99.90
2019-03-26T04:32:23.837Z,99.90
2019-03-26T04:34:52.353Z,99.90
2019-03-26T04:37:20.980Z,99.90
2019-03-26T04:39:49.427Z,99.90
2019-03-26T04:42:17.878Z,99.90
2019-03-26T04:44:46.751Z,99.90
2019-03-26T04:47:15.194Z,99.90
2019-03-26T04:49:43.638Z,99.90
2019-03-26T04:52:12.139Z,99.90
2019-03-26T04:54:40.649Z,99.90
2019-03-26T04:57:09.180Z,99.90
2019-03-26T04:59:37.651Z,99.90
2019-03-26T05:02:06.102Z,99.90
2019-03-26T05:04:34.571Z,99.90
2019-03-26T05:07:03.054Z,99.90
2019-03-26T05:09:31.507Z,99.90
2019-03-26T05:11:59.962Z,99.90
2019-03-26T05:14:28.439Z,99.90
2019-03-26T05:16:56.878Z,99.90
2019-03-26T05:19:25.326Z,99.90
2019-03-26T05:21:53.798Z,99.90
2019-03-26T05:24:22.278Z,99.90
2019-03-26T05:26:50.783Z,99.90
2019-03-26T05:29:19.259Z,99.90
2019-03-26T05:31:47.779Z,99.90
2019-03-26T05:34:16.371Z,99.90
2019-03-26T05:36:51.147Z,99.90
2019-03-26T05:39:15.203Z,99.90
2019-03-26T05:41:43.735Z,99.90
2019-03-26T05:44:12.398Z,99.90
2019-03-26T05:46:40.846Z,99.90
2019-03-26T05:49:09.300Z,99.90
2019-03-26T05:51:37.863Z,99.90
2019-03-26T05:54:06.306Z,99.90
2019-03-26T05:56:34.755Z,99.90
2019-03-26T05:59:03.302Z,99.90
2019-03-26T06:01:31.749Z,99.90
2019-03-26T06:04:00.254Z,99.90
2019-03-26T06:06:28.739Z,99.90
2019-03-26T06:08:57.181Z,99.90
2019-03-26T06:11:25.630Z,99.90
2019-03-26T06:13:54.107Z,99.90
2019-03-26T06:16:22.561Z,99.90
2019-03-26T06:18:51.156Z,99.90
2019-03-26T06:21:19.742Z,99.90
2019-03-26T06:23:48.188Z,99.90
2019-03-26T06:26:16.634Z,99.90
2019-03-26T06:28:45.107Z,99.90
2019-03-26T06:31:13.548Z,99.90
2019-03-26T06:33:42.071Z,99.90
2019-03-26T06:36:11.054Z,99.90
2019-03-26T06:38:39.498Z,99.90
2019-03-26T06:41:08.014Z,99.90
2019-03-26T06:43:36.566Z,99.90
2019-03-26T06:46:05.002Z,99.90
2019-03-26T06:48:33.457Z,99.90
2019-03-26T06:51:02.007Z,99.90
2019-03-26T06:53:30.451Z,99.90
2019-03-26T06:55:58.886Z,99.90
2019-03-26T06:58:27.725Z,99.90
2019-03-26T07:00:56.166Z,99.90
2019-03-26T07:03:24.699Z,99.90
2019-03-26T07:05:53.446Z,99.90
2019-03-26T07:08:22.074Z,99.90
2019-03-26T07:10:50.522Z,99.90
2019-03-26T07:13:19.011Z,99.90
2019-03-26T07:15:47.526Z,99.90
2019-03-26T07:18:16.037Z,99.90
2019-03-26T07:20:44.586Z,99.90
2019-03-26T07:23:13.100Z,99.90
2019-03-26T07:25:41.542Z,99.90
2019-03-26T07:28:10.159Z,99.90
2019-03-26T07:30:40.985Z,99.90
2019-03-26T07:33:10.282Z,99.90
2019-03-26T07:35:39.002Z,99.90
2019-03-26T07:38:07.697Z,99.90
2019-03-26T07:40:36.287Z,99.90
2019-03-26T07:43:05.325Z,99.90
2019-03-26T07:45:34.008Z,99.90
2019-03-26T07:48:02.532Z,99.90
2019-03-26T07:50:31.167Z,99.90
2019-03-26T07:52:59.606Z,99.20
2019-03-26T07:55:28.130Z,97.30
2019-03-26T07:57:56.632Z,95.70
2019-03-26T08:00:35.690Z,95.20
2019-03-26T08:03:05.004Z,91.10
2019-03-26T08:05:33.517Z,89.50
2019-03-26T08:08:02.109Z,84.00
2019-03-26T08:10:30.752Z,82.80
2019-03-26T08:12:59.282Z,76.80
2019-03-26T08:15:27.839Z,69.00
2019-03-26T08:17:56.372Z,70.50
2019-03-26T08:20:24.811Z,66.20
2019-03-26T08:22:53.273Z,64.30
2019-03-26T08:25:22.337Z,62.50
2019-03-26T08:27:50.975Z,59.90
2019-03-26T08:30:21.035Z,60.30
2019-03-26T08:32:49.514Z,64.00
2019-03-26T08:35:17.965Z,70.40
2019-03-26T08:37:46.489Z,73.80
2019-03-26T08:40:15.123Z,73.10
2019-03-26T08:42:43.566Z,74.70
2019-03-26T08:45:12.346Z,83.20
2019-03-26T08:47:41.239Z,87.20
2019-03-26T08:50:10.094Z,89.20
2019-03-26T08:52:38.553Z,89.70
2019-03-26T08:55:10.439Z,92.10
2019-03-26T08:57:38.893Z,92.10
2019-03-26T09:00:09.519Z,89.60
2019-03-26T09:02:37.994Z,89.90
2019-03-26T09:05:10.795Z,91.20
2019-03-26T09:07:39.322Z,91.50
2019-03-26T09:10:11.231Z,92.30
2019-03-26T09:12:39.934Z,94.00
2019-03-26T09:15:10.013Z,94.40
2019-03-26T09:17:39.604Z,94.60
2019-03-26T09:20:10.488Z,94.30
2019-03-26T09:22:39.023Z,93.20
2019-03-26T09:25:08.027Z,89.80
2019-03-26T09:27:36.481Z,90.00
2019-03-26T09:30:07.643Z,87.50
2019-03-26T09:32:36.287Z,83.50
2019-03-26T09:35:06.957Z,84.40
2019-03-26T09:37:35.485Z,85.00
2019-03-26T09:40:06.222Z,88.00
2019-03-26T09:42:34.667Z,90.40
2019-03-26T09:45:03.776Z,89.80
2019-03-26T09:47:32.441Z,85.20
2019-03-26T09:50:00.962Z,85.40
2019-03-26T09:52:29.490Z,88.30
2019-03-26T09:54:58.127Z,85.20
2019-03-26T09:57:26.620Z,84.20
2019-03-26T09:59:55.188Z,69.10
2019-03-26T10:02:23.760Z,69.00
2019-03-26T10:04:52.234Z,68.30
2019-03-26T10:07:21.950Z,72.90
2019-03-26T10:09:51.256Z,77.80
2019-03-26T10:12:19.800Z,81.60
2019-03-26T10:14:48.323Z,89.10
2019-03-26T10:17:17.042Z,91.70
2019-03-26T10:19:45.588Z,91.40
2019-03-26T10:22:14.113Z,90.50
2019-03-26T10:24:42.817Z,90.50
2019-03-26T10:27:11.276Z,90.70
2019-03-26T10:29:39.808Z,89.70
2019-03-26T10:32:08.437Z,84.90
2019-03-26T10:34:36.979Z,79.90
2019-03-26T10:37:05.587Z,80.60
2019-03-26T10:39:34.177Z,80.20
2019-03-26T10:42:02.778Z,83.60
2019-03-26T10:44:31.304Z,84.20
2019-03-26T10:46:59.933Z,82.90
2019-03-26T10:49:28.507Z,82.80
2019-03-26T10:51:56.973Z,82.80
2019-03-26T10:54:25.646Z,77.60
2019-03-26T10:56:54.162Z,78.20
2019-03-26T10:59:22.625Z,78.20
2019-03-26T11:01:51.108Z,71.40
2019-03-26T11:04:19.568Z,69.00
2019-03-26T11:06:48.031Z,72.60
2019-03-26T11:09:24.093Z,71.60
2019-03-26T11:11:46.840Z,75.00
2019-03-26T11:14:15.377Z,74.80
2019-03-26T11:16:43.952Z,75.50
2019-03-26T11:19:12.412Z,72.00
2019-03-26T11:21:41.031Z,73.70
2019-03-26T11:24:09.579Z,76.50
2019-03-26T11:26:38.263Z,76.80
2019-03-26T11:29:06.934Z,73.30
2019-03-26T11:31:35.722Z,71.20
2019-03-26T11:34:04.349Z,71.70
2019-03-26T11:36:32.876Z,75.80
2019-03-26T11:39:01.449Z,75.90
2019-03-26T11:41:29.971Z,75.60
2019-03-26T11:43:58.439Z,72.70
2019-03-26T11:46:27.001Z,73.00
2019-03-26T11:48:55.453Z,72.40
2019-03-26T11:51:23.913Z,72.90
2019-03-26T11:53:52.471Z,72.50
2019-03-26T11:56:20.999Z,74.30
2019-03-26T11:58:49.464Z,75.50
2019-03-26T12:01:18.021Z,77.90
2019-03-26T12:03:46.548Z,74.00
2019-03-26T12:06:15.008Z,69.10
2019-03-26T12:08:43.570Z,69.60
2019-03-26T12:11:12.024Z,71.80
2019-03-26T12:13:40.552Z,71.50
2019-03-26T12:16:09.447Z,68.60
2019-03-26T12:18:37.938Z,67.10
2019-03-26T12:21:06.624Z,71.00
2019-03-26T12:23:35.270Z,71.50
2019-03-26T12:26:04.754Z,74.90
2019-03-26T12:28:33.358Z,78.00
2019-03-26T12:31:01.929Z,78.50
2019-03-26T12:33:30.464Z,80.50
2019-03-26T12:35:58.993Z,79.90
2019-03-26T12:38:27.742Z,79.30
2019-03-26T12:40:56.204Z,81.60
2019-03-26T12:43:24.802Z,81.30
2019-03-26T12:45:53.424Z,81.50
2019-03-26T12:48:21.956Z,81.40
2019-03-26T12:50:50.563Z,80.80
2019-03-26T12:53:19.137Z,84.20
2019-03-26T12:55:47.664Z,86.10
2019-03-26T12:58:16.265Z,87.30
2019-03-26T13:00:45.025Z,86.40
2019-03-26T13:03:13.511Z,87.40
2019-03-26T13:05:42.120Z,87.10
2019-03-26T13:08:10.687Z,83.00
2019-03-26T13:10:52.439Z,83.40
2019-03-26T13:13:09.400Z,80.60
2019-03-26T13:15:38.088Z,80.50
2019-03-26T13:18:06.683Z,77.70
2019-03-26T13:20:35.220Z,75.10
2019-03-26T13:23:03.862Z,76.90
2019-03-26T13:25:32.349Z,74.40
2019-03-26T13:28:00.868Z,74.10
2019-03-26T13:30:29.596Z,68.00
2019-03-26T13:32:58.050Z,69.20
2019-03-26T13:35:26.504Z,69.90
2019-03-26T13:37:55.624Z,66.10
2019-03-26T13:40:27.563Z,63.50
2019-03-26T13:42:54.270Z,60.20
2019-03-26T13:45:22.753Z,63.30
2019-03-26T13:47:51.283Z,66.80
2019-03-26T13:50:19.976Z,67.10
2019-03-26T13:52:48.821Z,71.10
2019-03-26T13:55:17.447Z,73.70
2019-03-26T13:57:45.979Z,73.90
2019-03-26T14:00:15.297Z,72.90
2019-03-26T14:02:43.899Z,73.60
2019-03-26T14:05:23.783Z,65.10
2019-03-26T14:07:53.187Z,64.20
2019-03-26T14:10:21.728Z,63.70
2019-03-26T14:12:50.695Z,65.90
2019-03-26T14:15:19.152Z,66.40
2019-03-26T14:17:47.751Z,69.90
2019-03-26T14:20:16.875Z,66.70
2019-03-26T14:22:45.339Z,71.00
2019-03-26T14:25:14.007Z,70.20
2019-03-26T14:27:42.495Z,70.20
2019-03-26T14:30:12.199Z,70.20
2019-03-26T14:32:40.735Z,68.40
2019-03-26T14:35:09.911Z,72.60
2019-03-26T14:37:50.545Z,73.40
2019-03-26T14:40:08.977Z,69.50
2019-03-26T14:42:37.567Z,66.70
2019-03-26T14:45:08.171Z,66.40
2019-03-26T14:47:36.709Z,67.80
2019-03-26T14:50:06.625Z,73.10
2019-03-26T14:52:35.299Z,73.60
2019-03-26T14:55:05.015Z,73.60
2019-03-26T14:57:33.571Z,74.30
2019-03-26T15:00:02.033Z,75.70
2019-03-26T15:02:30.552Z,75.60
2019-03-26T15:04:59.035Z,76.60
2019-03-26T15:07:27.496Z,67.30
2019-03-26T15:09:55.962Z,66.60
2019-03-26T15:12:24.614Z,60.10
2019-03-26T15:14:53.077Z,57.20
2019-03-26T15:17:21.607Z,52.60
2019-03-26T15:19:50.087Z,50.60
2019-03-26T15:22:18.615Z,51.50
2019-03-26T15:24:47.146Z,52.10
2019-03-26T15:27:15.632Z,51.90
2019-03-26T15:29:44.090Z,50.50
2019-03-26T15:32:12.543Z,51.40
2019-03-26T15:34:41.188Z,52.40
2019-03-26T15:37:09.732Z,52.90
2019-03-26T15:39:38.272Z,54.60
2019-03-26T15:42:06.921Z,56.60
2019-03-26T15:44:35.455Z,59.90
2019-03-26T15:47:04.135Z,60.50
2019-03-26T15:49:32.800Z,63.60
2019-03-26T15:52:01.270Z,66.40
2019-03-26T15:54:29.807Z,67.40
2019-03-26T15:56:58.446Z,63.60
2019-03-26T15:59:26.978Z,59.20
2019-03-26T16:01:55.436Z,58.20
2019-03-26T16:04:23.930Z,58.40
2019-03-26T16:06:52.407Z,59.10
2019-03-26T16:09:20.930Z,60.10
2019-03-26T16:11:49.508Z,62.30
2019-03-26T16:14:17.967Z,64.10
2019-03-26T16:16:46.543Z,62.50
2019-03-26T16:19:17.902Z,64.40
2019-03-26T16:21:45.433Z,66.50
2019-03-26T16:24:14.055Z,70.80
2019-03-26T16:26:42.705Z,68.40
2019-03-26T16:29:11.171Z,72.20
2019-03-26T16:31:39.635Z,75.10
2019-03-26T16:34:08.273Z,77.00
2019-03-26T16:36:36.737Z,81.10
2019-03-26T16:39:07.200Z,83.70
2019-03-26T16:41:48.125Z,86.10
2019-03-26T16:44:06.008Z,86.60
2019-03-26T16:46:36.371Z,88.60
2019-03-26T16:49:04.772Z,88.50
2019-03-26T16:51:33.373Z,89.50
2019-03-26T16:54:01.912Z,90.20
2019-03-26T16:56:30.395Z,90.10
2019-03-26T16:58:58.868Z,89.50
2019-03-26T17:01:27.412Z,88.00
2019-03-26T17:03:55.963Z,88.10
2019-03-26T17:06:24.500Z,87.50
2019-03-26T17:08:53.024Z,88.20
2019-03-26T17:11:21.516Z,88.00
2019-03-26T17:13:49.985Z,87.90
2019-03-26T17:16:18.448Z,88.10
2019-03-26T17:18:47.010Z,90.20
2019-03-26T17:21:18.262Z,90.90
2019-03-26T17:23:45.650Z,91.20
2019-03-26T17:26:15.511Z,91.50
2019-03-26T17:28:44.257Z,91.80
2019-03-26T17:31:12.797Z,92.20
2019-03-26T17:33:41.283Z,92.20
2019-03-26T17:36:09.823Z,92.50
2019-03-26T17:38:38.353Z,93.10
2019-03-26T17:41:06.910Z,93.60
2019-03-26T17:43:35.405Z,94.00
2019-03-26T17:46:04.019Z,94.50
2019-03-26T17:48:32.588Z,95.00
2019-03-26T17:51:01.178Z,95.40
2019-03-26T17:53:29.661Z,95.50
2019-03-26T17:55:58.158Z,95.80
2019-03-26T17:58:26.681Z,96.00
2019-03-26T18:00:55.139Z,96.20
2019-03-26T18:03:26.533Z,96.40
2019-03-26T18:05:53.867Z,96.70
2019-03-26T18:08:22.319Z,96.70
2019-03-26T18:10:51.099Z,96.90
2019-03-26T18:13:19.794Z,96.70
2019-03-26T18:15:48.251Z,96.90
2019-03-26T18:18:16.745Z,97.20
2019-03-26T18:20:45.268Z,97.30
2019-03-26T18:23:13.806Z,97.10
2019-03-26T18:25:42.376Z,97.50
2019-03-26T18:28:10.968Z,97.70
2019-03-26T18:30:39.661Z,97.50
2019-03-26T18:33:08.296Z,97.60
2019-03-26T18:35:36.822Z,97.70
2019-03-26T18:38:05.449Z,97.90
2019-03-26T18:40:34.035Z,98.00
2019-03-26T18:43:02.500Z,98.00
2019-03-26T18:45:31.120Z,98.00
2019-03-26T18:48:00.856Z,98.00
2019-03-26T18:50:29.384Z,97.90
2019-03-26T18:52:58.060Z,98.00
2019-03-26T18:55:26.623Z,97.90
2019-03-26T18:57:55.096Z,97.90
2019-03-26T19:00:36.959Z,97.80
2019-03-26T19:03:06.053Z,97.90
2019-03-26T19:05:34.660Z,98.00
2019-03-26T19:08:03.372Z,98.10
2019-03-26T19:10:33.787Z,97.60
2019-03-26T19:13:02.549Z,97.80
2019-03-26T19:15:31.272Z,97.70
2019-03-26T19:17:59.864Z,97.70
2019-03-26T19:20:28.400Z,97.60
2019-03-26T19:22:56.976Z,97.80
2019-03-26T19:25:25.566Z,97.70
2019-03-26T19:27:54.168Z,97.80
2019-03-26T19:30:22.652Z,97.90
2019-03-26T19:32:51.184Z,98.20
2019-03-26T19:35:19.859Z,98.10
2019-03-26T19:37:48.449Z,98.60
2019-03-26T19:40:17.119Z,98.80
2019-03-26T19:42:45.680Z,98.90
2019-03-26T19:45:14.705Z,99.20
2019-03-26T19:47:43.300Z,99.30
2019-03-26T19:50:12.175Z,99.40
2019-03-26T19:52:40.684Z,99.80
2019-03-26T19:55:09.456Z,99.90
2019-03-26T19:57:37.919Z,99.90
2019-03-26T20:00:14.684Z,99.90
2019-03-26T20:02:43.142Z,99.90
2019-03-26T20:05:11.809Z,99.70
2019-03-26T20:07:40.536Z,99.90
2019-03-26T20:10:10.662Z,99.90
2019-03-26T20:12:39.146Z,99.90
2019-03-26T20:15:09.553Z,99.90
2019-03-26T20:17:38.081Z,99.90
2019-03-26T20:20:07.390Z,99.90
2019-03-26T20:22:36.013Z,99.90
2019-03-26T20:25:05.716Z,99.40
2019-03-26T20:27:34.256Z,99.60
2019-03-26T20:30:03.253Z,99.60
2019-03-26T20:32:31.723Z,99.50
2019-03-26T20:35:00.403Z,99.20
2019-03-26T20:37:29.096Z,99.40
2019-03-26T20:39:57.550Z,99.40
2019-03-26T20:42:26.079Z,99.20
2019-03-26T20:44:54.643Z,98.90
2019-03-26T20:47:23.100Z,98.70
2019-03-26T20:49:51.642Z,98.90
2019-03-26T20:52:20.684Z,98.90
2019-03-26T20:54:49.206Z,98.50
2019-03-26T20:57:17.876Z,98.30
2019-03-26T20:59:46.715Z,98.20
2019-03-26T21:02:15.290Z,98.20
2019-03-26T21:04:43.851Z,98.10
2019-03-26T21:07:12.602Z,98.00
2019-03-26T21:09:41.048Z,97.90
2019-03-26T21:12:09.509Z,98.20
2019-03-26T21:14:38.147Z,98.10
2019-03-26T21:17:06.604Z,97.50
2019-03-26T21:19:35.055Z,97.60
2019-03-26T21:22:03.641Z,97.60
2019-03-26T21:24:32.244Z,97.00
2019-03-26T21:27:00.770Z,97.10
2019-03-26T21:29:29.414Z,97.20
2019-03-26T21:31:57.975Z,97.10
2019-03-26T21:34:30.565Z,96.80
2019-03-26T21:36:56.721Z,97.10
2019-03-26T21:39:25.261Z,97.30
2019-03-26T21:41:53.795Z,97.30
2019-03-26T21:44:22.570Z,96.60
2019-03-26T21:46:51.045Z,96.70
2019-03-26T21:49:19.604Z,96.80
2019-03-26T21:51:48.103Z,96.70
2019-03-26T21:54:16.591Z,97.40
2019-03-26T21:56:45.133Z,96.80
2019-03-26T21:59:14.075Z,96.10
2019-03-26T22:01:42.547Z,96.40
2019-03-26T22:04:11.012Z,96.50
2019-03-26T22:06:39.597Z,96.70
2019-03-26T22:09:08.278Z,96.30
2019-03-26T22:11:49.224Z,96.60
2019-03-26T22:14:17.366Z,96.30
2019-03-26T22:16:37.345Z,96.50
2019-03-26T22:19:05.864Z,96.30
2019-03-26T22:21:34.430Z,96.20
2019-03-26T22:24:02.963Z,96.30
2019-03-26T22:26:31.482Z,96.40
2019-03-26T22:29:00.334Z,96.80
2019-03-26T22:31:28.863Z,96.50
2019-03-26T22:33:57.392Z,96.70
2019-03-26T22:36:25.884Z,96.90
2019-03-26T22:38:54.335Z,96.80
2019-03-26T22:41:22.786Z,96.80
2019-03-26T22:43:54.861Z,96.60
2019-03-26T22:46:21.831Z,97.00
2019-03-26T22:48:50.293Z,96.90
2019-03-26T22:51:18.943Z,96.70
2019-03-26T22:53:47.420Z,96.70
2019-03-26T22:56:16.014Z,97.00
2019-03-26T22:58:44.719Z,97.20
2019-03-26T23:01:13.379Z,97.10
2019-03-26T23:03:41.843Z,97.10
2019-03-26T23:06:10.391Z,97.50
2019-03-26T23:08:39.026Z,97.80
2019-03-26T23:11:07.616Z,98.10
2019-03-26T23:13:36.241Z,98.20
2019-03-26T23:16:04.845Z,98.50
2019-03-26T23:18:33.371Z,98.40
2019-03-26T23:21:02.026Z,98.60
2019-03-26T23:23:30.553Z,98.70
2019-03-26T23:25:59.143Z,99.00
2019-03-26T23:28:27.627Z,98.80
2019-03-26T23:30:56.227Z,98.80
2019-03-26T23:33:24.763Z,99.20
2019-03-26T23:35:53.315Z,98.90
2019-03-26T23:38:21.779Z,99.10
2019-03-26T23:40:50.391Z,99.30
2019-03-26T23:43:18.883Z,99.30
2019-03-26T23:45:47.358Z,99.70
2019-03-26T23:48:15.888Z,99.80
2019-03-26T23:50:44.475Z,99.60
2019-03-26T23:53:12.997Z,99.90
2019-03-26T23:55:41.537Z,99.90
2019-03-26T23:58:10.284Z,99.90
